Time;durP1;ratioP1;P1;durP2;ratioP2;P2;SDS_P1;SDS_P2;PMS_P1;PMS_P2;Temp;Humidity;BMP_temperature;BMP_pressure;BME280_temperature;BME280_humidity;BME280_pressure;Samples;Min_cycle;Max_cycle;Signal;HPM_P1;HPM_P2
2022/02/01 00:02:07;;;;;;;;;;;;;;;2.73;82.03;99440.28;5098210;28;19935;-67
2022/02/01 00:04:43;;;;;;;;;;;;;;;2.71;82.06;99449.28;5100178;28;19919;-67
2022/02/01 00:09:46;;;;;;;;;;;;;;;2.65;82.36;99455.00;5095738;28;20223;-68
2022/02/01 00:18:16;;;;;;;;;;;;;;;2.51;82.13;99463.06;5102283;28;19919;-68
2022/02/01 00:36:35;;;;;;;;;;;;;;;2.16;83.80;99425.78;5068935;28;20457;-67
2022/02/01 00:39:11;;;;;;;;;;;;;;;2.11;84.18;99431.38;5096675;28;20424;-67
2022/02/01 00:41:42;;;;;;;;;;;;;;;2.10;85.03;99429.69;5104322;28;19939;-67
2022/02/01 00:44:08;;;;;;;;;;;;;;;2.09;85.67;99437.72;5105333;28;20354;-67
2022/02/01 00:46:34;;;;;;;;;;;;;;;2.09;85.88;99433.28;5104182;28;20049;-67
2022/02/01 00:49:00;;;;;;;;;;;;;;;2.07;85.76;99432.53;5106113;28;19916;-65
2022/02/01 00:51:25;;;;;;;;;;;;;;;1.97;85.49;99420.88;5106252;28;20337;-65
2022/02/01 00:53:50;;;;;;;;;;;;;;;2.06;85.01;99436.13;5101746;28;19922;-66
2022/02/01 00:56:15;;;;;;;;;;;;;;;2.04;85.62;99435.38;5101933;28;19942;-66
2022/02/01 00:58:41;;;;;;;;;;;;;;;1.99;85.82;99426.06;5089604;28;19919;-66
2022/02/01 01:01:07;;;;;;;;;;;;;;;1.95;85.58;99420.16;5093860;28;19965;-66
2022/02/01 01:03:32;;;;;;;;;;;;;;;1.93;85.48;99416.75;5098365;28;19924;-66
2022/02/01 01:05:59;;;;;;;;;;;;;;;1.90;85.61;99416.97;5104432;28;19997;-66
2022/02/01 01:08:25;;;;;;;;;;;;;;;1.93;86.53;99421.19;5101434;28;20414;-66
2022/02/01 01:10:50;;;;;;;;;;;;;;;1.90;86.70;99419.59;5106839;28;19916;-65
2022/02/01 01:16:05;;;;;;;;;;;;;;;1.91;86.87;99423.09;5099032;28;19938;-65
2022/02/01 01:19:05;;;;;;;;;;;;;;;1.90;87.38;99426.66;5092942;28;19946;-66
2022/02/01 01:54:17;;;;;;;;;;;;;;;1.86;85.61;99422.53;5095189;28;20018;-66
2022/02/01 01:56:42;;;;;;;;;;;;;;;1.81;85.77;99420.19;5089623;28;19959;-66
2022/02/01 01:59:08;;;;;;;;;;;;;;;1.79;85.79;99422.13;5091001;28;19947;-65
2022/02/01 02:01:34;;;;;;;;;;;;;;;1.77;85.26;99420.50;5089810;28;19961;-65
2022/02/01 02:04:00;;;;;;;;;;;;;;;1.77;85.76;99442.50;5092247;28;20407;-66
2022/02/01 02:06:25;;;;;;;;;;;;;;;1.71;85.81;99439.44;5092013;28;19911;-65
2022/02/01 02:08:53;;;;;;;;;;;;;;;1.69;85.36;99447.47;5107600;28;19922;-65
2022/02/01 02:16:33;;;;;;;;;;;;;;;1.64;85.94;99443.41;5117146;27;19949;-65
2022/02/01 02:18:58;;;;;;;;;;;;;;;1.60;86.48;99453.34;5103426;27;19990;-66
2022/02/01 02:21:23;;;;;;;;;;;;;;;1.59;85.76;99449.03;5108943;28;19994;-66
2022/02/01 02:23:49;;;;;;;;;;;;;;;1.53;86.18;99449.41;5106913;27;19919;-66
2022/02/01 02:26:16;;;;;;;;;;;;;;;1.51;85.98;99438.09;5115660;27;19912;-65
2022/02/01 02:28:41;;;;;;;;;;;;;;;1.48;86.68;99434.81;5105706;27;20304;-66
2022/02/01 02:31:07;;;;;;;;;;;;;;;1.49;86.74;99441.78;5094180;27;19916;-67
2022/02/01 02:33:33;;;;;;;;;;;;;;;1.46;87.29;99441.97;5101066;27;19942;-67
2022/02/01 02:36:35;;;;;;;;;;;;;;;1.44;88.02;99443.88;5106713;28;19919;-68
2022/02/01 02:39:00;;;;;;;;;;;;;;;1.42;88.26;99440.50;5105102;28;19957;-67
2022/02/01 02:46:40;;;;;;;;;;;;;;;1.43;88.80;99450.97;5108321;28;19964;-68
2022/02/01 02:49:06;;;;;;;;;;;;;;;1.45;88.62;99451.69;5105489;28;19915;-67
2022/02/01 02:51:31;;;;;;;;;;;;;;;1.45;88.59;99450.88;5097679;28;19992;-67
2022/02/01 02:53:57;;;;;;;;;;;;;;;1.43;89.34;99448.31;5101843;28;20037;-67
2022/02/01 02:56:22;;;;;;;;;;;;;;;1.46;89.04;99445.47;5106374;28;20009;-67
2022/02/01 02:58:51;;;;;;;;;;;;;;;1.46;89.20;99456.03;5089951;28;19916;-67
2022/02/01 03:01:18;;;;;;;;;;;;;;;1.46;88.93;99452.56;5096566;28;19912;-67
2022/02/01 03:03:43;;;;;;;;;;;;;;;1.47;89.10;99465.66;5104049;28;20356;-67
2022/02/01 03:06:08;;;;;;;;;;;;;;;1.47;88.97;99475.38;5096109;28;19911;-67
2022/02/01 03:08:34;;;;;;;;;;;;;;;1.61;87.52;99484.09;5104593;28;19920;-67
2022/02/01 03:11:03;;;;;;;;;;;;;;;1.64;87.62;99489.19;5101288;28;19919;-67
2022/02/01 03:13:31;;;;;;;;;;;;;;;1.66;87.16;99491.72;5089111;28;20023;-67
2022/02/01 03:16:12;;;;;;;;;;;;;;;1.63;87.66;99498.06;5097126;28;19918;-67
2022/02/01 03:21:22;;;;;;;;;;;;;;;1.64;88.05;99493.63;5095822;28;19918;-67
2022/02/01 03:23:48;;;;;;;;;;;;;;;1.69;87.80;99499.47;5100609;28;19916;-67
2022/02/01 03:26:13;;;;;;;;;;;;;;;1.65;88.02;99498.78;5102256;28;19919;-67
2022/02/01 03:28:39;;;;;;;;;;;;;;;1.75;87.20;99504.34;5100913;28;19924;-67
2022/02/01 03:31:04;;;;;;;;;;;;;;;1.77;86.30;99500.66;5108487;28;19951;-67
2022/02/01 03:33:29;;;;;;;;;;;;;;;1.84;86.49;99506.41;5094993;28;19911;-67
2022/02/01 03:35:55;;;;;;;;;;;;;;;1.75;86.83;99496.44;5103111;28;20422;-67
2022/02/01 03:38:20;;;;;;;;;;;;;;;1.68;86.99;99511.81;5103187;28;19920;-67
2022/02/01 03:40:45;;;;;;;;;;;;;;;1.67;87.49;99512.78;5100254;28;20364;-67
2022/02/01 03:43:11;;;;;;;;;;;;;;;1.69;87.42;99517.97;5101457;28;19919;-67
2022/02/01 03:45:36;;;;;;;;;;;;;;;1.70;86.70;99524.94;5103909;28;19942;-67
2022/02/01 03:48:01;;;;;;;;;;;;;;;1.70;87.25;99531.06;5085163;28;19916;-67
2022/02/01 03:50:26;;;;;;;;;;;;;;;1.72;86.30;99534.47;5104183;28;20119;-67
2022/02/01 03:52:53;;;;;;;;;;;;;;;1.77;86.50;99532.38;5097816;28;19920;-67
2022/02/01 03:55:19;;;;;;;;;;;;;;;1.77;86.59;99536.81;5107471;28;20351;-67
2022/02/01 03:57:44;;;;;;;;;;;;;;;1.80;86.03;99537.47;5103789;28;20133;-67
2022/02/01 04:00:12;;;;;;;;;;;;;;;1.75;85.93;99530.78;5097892;28;19920;-65
2022/02/01 04:02:37;;;;;;;;;;;;;;;1.72;86.46;99536.25;5087770;28;20558;-66
2022/02/01 04:05:03;;;;;;;;;;;;;;;1.69;86.15;99525.88;5104865;28;19959;-65
2022/02/01 04:07:28;;;;;;;;;;;;;;;1.64;86.21;99536.75;5096112;28;19915;-67
2022/02/01 04:09:53;;;;;;;;;;;;;;;1.62;86.18;99522.78;5101417;28;20044;-67
2022/02/01 04:12:19;;;;;;;;;;;;;;;1.60;86.63;99527.34;5098451;28;19912;-67
2022/02/01 04:14:46;;;;;;;;;;;;;;;1.57;86.81;99532.81;5110613;28;20010;-65
2022/02/01 04:17:12;;;;;;;;;;;;;;;1.54;86.55;99530.34;5105654;28;19920;-65
2022/02/01 04:19:37;;;;;;;;;;;;;;;1.51;86.24;99534.97;5102466;28;19919;-65
2022/02/01 04:22:04;;;;;;;;;;;;;;;1.49;86.40;99545.63;5090616;28;19916;-65
2022/02/01 04:24:30;;;;;;;;;;;;;;;1.42;86.08;99539.06;5099639;28;20845;-65
2022/02/01 04:26:56;;;;;;;;;;;;;;;1.39;86.41;99538.41;5103969;28;19916;-65
2022/02/01 04:29:22;;;;;;;;;;;;;;;1.35;86.62;99529.00;5099127;28;19989;-65
2022/02/01 04:31:47;;;;;;;;;;;;;;;1.33;86.86;99539.66;5095178;28;20006;-66
2022/02/01 04:34:12;;;;;;;;;;;;;;;1.38;86.69;99532.28;5105326;28;20363;-65
2022/02/01 04:36:38;;;;;;;;;;;;;;;1.30;86.89;99529.28;5105222;28;19919;-65
2022/02/01 04:39:04;;;;;;;;;;;;;;;1.28;86.30;99539.09;5104486;28;19920;-66
2022/02/01 04:41:29;;;;;;;;;;;;;;;1.27;87.14;99555.88;5093288;28;19958;-65
2022/02/01 04:43:57;;;;;;;;;;;;;;;1.14;87.41;99541.75;5092592;28;19923;-65
2022/02/01 04:46:22;;;;;;;;;;;;;;;1.10;87.29;99552.59;5093294;28;20327;-65
2022/02/01 04:48:48;;;;;;;;;;;;;;;1.00;86.78;99554.94;5094282;28;19912;-67
2022/02/01 04:51:15;;;;;;;;;;;;;;;0.94;87.02;99562.38;5097855;28;19924;-67
2022/02/01 04:53:41;;;;;;;;;;;;;;;0.88;87.61;99560.97;5100346;28;19975;-67
2022/02/01 04:56:06;;;;;;;;;;;;;;;0.85;88.27;99573.50;5092371;28;19916;-67
2022/02/01 04:58:32;;;;;;;;;;;;;;;0.79;88.80;99564.16;5091635;28;20011;-67
2022/02/01 05:00:57;;;;;;;;;;;;;;;0.75;88.93;99567.94;5092078;28;19912;-65
2022/02/01 05:03:22;;;;;;;;;;;;;;;0.72;89.29;99576.03;5105550;27;19989;-67
2022/02/01 05:05:48;;;;;;;;;;;;;;;0.70;88.99;99583.16;5091216;28;19939;-67
2022/02/01 05:08:14;;;;;;;;;;;;;;;0.65;88.45;99579.97;5101050;28;19920;-66
2022/02/01 05:10:40;;;;;;;;;;;;;;;0.58;88.08;99588.34;5094424;28;19958;-65
2022/02/01 05:15:41;;;;;;;;;;;;;;;0.46;88.33;99600.47;5103969;28;19915;-66
2022/02/01 05:18:13;;;;;;;;;;;;;;;0.40;87.99;99603.44;5090054;28;19933;-65
2022/02/01 05:20:47;;;;;;;;;;;;;;;0.36;88.26;99601.94;5089956;28;19915;-65
2022/02/01 05:23:12;;;;;;;;;;;;;;;0.35;89.34;99604.66;5092721;28;19955;-64
2022/02/01 05:25:39;;;;;;;;;;;;;;;0.34;89.65;99618.75;5091944;28;19999;-64
2022/02/01 05:28:05;;;;;;;;;;;;;;;0.30;90.14;99618.09;5107643;28;19919;-65
2022/02/01 05:30:30;;;;;;;;;;;;;;;0.23;89.95;99613.28;5089493;28;19939;-65
2022/02/01 05:32:55;;;;;;;;;;;;;;;0.18;89.73;99616.16;5099844;28;19916;-65
2022/02/01 05:35:21;;;;;;;;;;;;;;;0.17;89.90;99618.88;5100624;28;19965;-65
2022/02/01 05:37:46;;;;;;;;;;;;;;;0.12;89.89;99616.50;5102121;28;19965;-65
2022/02/01 05:40:12;;;;;;;;;;;;;;;0.02;90.20;99599.50;5096834;28;20429;-65
2022/02/01 05:42:55;;;;;;;;;;;;;;;0.05;89.62;99620.44;5109623;28;19919;-65
2022/02/01 05:45:20;;;;;;;;;;;;;;;-0.01;89.06;99616.34;5093940;28;20021;-65
2022/02/01 05:47:46;;;;;;;;;;;;;;;-0.04;88.50;99613.91;5102434;28;19929;-64
2022/02/01 05:50:11;;;;;;;;;;;;;;;-0.05;88.12;99625.38;5089398;28;19919;-64
2022/02/01 05:52:36;;;;;;;;;;;;;;;-0.08;88.39;99635.22;5103074;28;19920;-65
2022/02/01 05:55:02;;;;;;;;;;;;;;;-0.09;88.78;99633.53;5099803;28;20474;-65
2022/02/01 05:57:27;;;;;;;;;;;;;;;-0.17;89.12;99630.47;5089962;28;19919;-65
2022/02/01 05:59:53;;;;;;;;;;;;;;;-0.15;89.52;99644.41;5093802;28;19920;-65
2022/02/01 06:02:19;;;;;;;;;;;;;;;-0.18;89.77;99642.81;5091834;28;19916;-65
2022/02/01 06:04:44;;;;;;;;;;;;;;;-0.19;90.30;99648.16;5109911;27;19915;-65
2022/02/01 06:07:10;;;;;;;;;;;;;;;-0.17;91.01;99654.19;5097872;28;19943;-65
2022/02/01 06:09:35;;;;;;;;;;;;;;;-0.26;90.54;99655.53;5091251;28;19922;-65
2022/02/01 06:12:00;;;;;;;;;;;;;;;-0.25;90.52;99669.56;5109218;28;20318;-65
2022/02/01 06:14:25;;;;;;;;;;;;;;;-0.29;90.79;99670.66;5090716;28;20184;-65
2022/02/01 06:16:51;;;;;;;;;;;;;;;-0.29;90.03;99681.22;5098596;28;20390;-65
2022/02/01 06:19:16;;;;;;;;;;;;;;;-0.37;90.37;99676.34;5090056;28;19916;-65
2022/02/01 06:21:41;;;;;;;;;;;;;;;-0.38;90.39;99684.34;5100998;28;19916;-65
2022/02/01 06:24:08;;;;;;;;;;;;;;;-0.41;90.32;99687.13;5098903;28;19916;-65
2022/02/01 06:26:33;;;;;;;;;;;;;;;-0.43;90.09;99692.47;5094865;28;20003;-65
2022/02/01 06:28:58;;;;;;;;;;;;;;;-0.45;90.66;99699.59;5104546;28;20058;-65
2022/02/01 06:31:24;;;;;;;;;;;;;;;-0.44;91.77;99719.75;5092146;28;19915;-65
2022/02/01 06:33:49;;;;;;;;;;;;;;;-0.37;92.50;99731.66;5090166;28;19912;-66
2022/02/01 06:36:14;;;;;;;;;;;;;;;-0.39;93.70;99727.38;5096392;28;19928;-65
2022/02/01 06:38:40;;;;;;;;;;;;;;;-0.34;94.37;99739.41;5110111;28;20379;-66
2022/02/01 06:41:05;;;;;;;;;;;;;;;-0.29;95.03;99740.00;5098220;28;19911;-66
2022/02/01 06:43:30;;;;;;;;;;;;;;;-0.22;95.80;99740.53;5095450;28;19947;-66
2022/02/01 06:45:58;;;;;;;;;;;;;;;-0.15;96.19;99749.81;5098164;28;20006;-65
2022/02/01 06:48:23;;;;;;;;;;;;;;;-0.08;96.62;99757.31;5100185;28;20288;-65
2022/02/01 06:50:49;;;;;;;;;;;;;;;0.03;97.42;99769.06;5090096;28;19923;-65
2022/02/01 06:53:15;;;;;;;;;;;;;;;0.09;97.49;99766.09;5098360;28;19912;-66
2022/02/01 06:58:09;;;;;;;;;;;;;;;0.27;98.57;99778.25;5099704;28;20041;-66
2022/02/01 07:00:34;;;;;;;;;;;;;;;0.36;98.27;99773.34;5101913;28;19939;-65
2022/02/01 07:02:59;;;;;;;;;;;;;;;0.42;98.80;99766.88;5100236;27;19912;-67
2022/02/01 07:05:25;;;;;;;;;;;;;;;0.50;98.56;99760.22;5094090;28;19911;-65
2022/02/01 07:07:50;;;;;;;;;;;;;;;0.62;98.34;99779.78;5104512;28;19985;-66
2022/02/01 07:10:16;;;;;;;;;;;;;;;0.72;98.04;99788.91;5089281;28;19912;-66
2022/02/01 07:12:42;;;;;;;;;;;;;;;0.77;97.74;99795.59;5092346;28;20000;-65
2022/02/01 07:15:07;;;;;;;;;;;;;;;0.84;97.60;99789.03;5100814;28;19935;-66
2022/02/01 07:17:42;;;;;;;;;;;;;;;0.92;98.02;99793.88;5102359;28;19916;-65
2022/02/01 07:20:08;;;;;;;;;;;;;;;1.03;98.31;99802.88;5090810;28;19919;-66
2022/02/01 07:22:35;;;;;;;;;;;;;;;1.10;98.05;99787.56;5089871;28;19920;-65
2022/02/01 07:25:12;;;;;;;;;;;;;;;1.18;98.22;99788.81;5088273;28;19920;-65
2022/02/01 07:27:42;;;;;;;;;;;;;;;1.27;98.08;99801.50;5104188;28;20041;-66
2022/02/01 07:30:11;;;;;;;;;;;;;;;1.37;97.87;99809.72;5091577;28;19949;-65
2022/02/01 07:32:36;;;;;;;;;;;;;;;1.42;98.27;99829.63;5109762;28;19912;-65
2022/02/01 07:35:02;;;;;;;;;;;;;;;1.47;98.13;99826.72;5089538;28;19918;-66
2022/02/01 07:37:27;;;;;;;;;;;;;;;1.55;97.84;99820.03;5090042;28;20273;-65
2022/02/01 07:39:53;;;;;;;;;;;;;;;1.64;98.09;99827.44;5092682;28;19916;-66
2022/02/01 07:42:18;;;;;;;;;;;;;;;1.67;97.89;99814.03;5088497;28;19923;-68
2022/02/01 07:44:44;;;;;;;;;;;;;;;1.75;98.34;99825.03;5090561;28;19912;-68
2022/02/01 07:47:17;;;;;;;;;;;;;;;1.81;98.33;99835.19;5104197;28;19959;-65
2022/02/01 07:49:42;;;;;;;;;;;;;;;1.86;98.43;99840.22;5097636;28;20021;-66
2022/02/01 07:52:07;;;;;;;;;;;;;;;1.88;98.27;99847.13;5095584;28;19920;-65
2022/02/01 07:54:33;;;;;;;;;;;;;;;1.92;98.20;99848.66;5110899;28;19915;-66
2022/02/01 07:56:58;;;;;;;;;;;;;;;1.97;97.83;99846.56;5094489;28;19920;-66
2022/02/01 07:59:23;;;;;;;;;;;;;;;2.07;97.86;99866.22;5098849;28;20392;-66
2022/02/01 08:01:48;;;;;;;;;;;;;;;2.09;97.85;99856.41;5097118;28;19915;-65
2022/02/01 08:04:14;;;;;;;;;;;;;;;2.15;97.61;99847.22;5094349;28;20387;-66
2022/02/01 08:06:39;;;;;;;;;;;;;;;2.20;97.55;99859.22;5108584;28;19996;-68
2022/02/01 08:09:13;;;;;;;;;;;;;;;2.27;97.27;99854.44;5105516;28;19954;-68
2022/02/01 08:11:39;;;;;;;;;;;;;;;2.30;97.40;99849.78;5105798;28;19935;-68
2022/02/01 08:16:53;;;;;;;;;;;;;;;2.42;97.06;99868.50;5099113;28;19919;-65
2022/02/01 08:19:56;;;;;;;;;;;;;;;2.47;96.83;99867.28;5100604;28;20012;-66
2022/02/01 08:22:08;;;;;;;;;;;;;;;2.49;96.49;99865.41;5098096;28;20321;-66
2022/02/01 08:24:33;;;;;;;;;;;;;;;2.55;96.82;99869.44;5101906;28;19915;-65
2022/02/01 08:26:59;;;;;;;;;;;;;;;2.58;96.76;99871.91;5110863;28;20391;-68
2022/02/01 08:29:24;;;;;;;;;;;;;;;2.64;96.32;99863.59;5103401;28;20337;-68
2022/02/01 08:31:49;;;;;;;;;;;;;;;2.70;96.59;99877.28;5104139;28;19916;-66
2022/02/01 08:34:15;;;;;;;;;;;;;;;2.79;95.75;99881.13;5098197;28;19927;-66
2022/02/01 08:36:41;;;;;;;;;;;;;;;2.85;95.52;99878.97;5105616;28;20003;-65
2022/02/01 08:39:06;;;;;;;;;;;;;;;2.96;95.23;99883.59;5092559;28;20034;-66
2022/02/01 08:41:31;;;;;;;;;;;;;;;3.03;95.28;99874.28;5100610;28;19919;-65
2022/02/01 08:43:57;;;;;;;;;;;;;;;3.14;94.42;99879.75;5109806;28;19915;-65
2022/02/01 08:46:22;;;;;;;;;;;;;;;3.25;93.85;99883.38;5093406;28;19915;-66
2022/02/01 08:48:48;;;;;;;;;;;;;;;3.32;93.08;99882.03;5100562;28;19920;-66
2022/02/01 08:51:16;;;;;;;;;;;;;;;3.30;92.06;99877.78;5092583;28;19919;-65
2022/02/01 08:53:54;;;;;;;;;;;;;;;3.47;92.03;99893.44;5100204;28;19916;-65
2022/02/01 08:59:03;;;;;;;;;;;;;;;3.59;91.14;99897.94;5105240;28;19919;-68
2022/02/01 09:01:28;;;;;;;;;;;;;;;3.64;90.81;99898.50;5092010;28;20717;-68
2022/02/01 09:03:53;;;;;;;;;;;;;;;3.70;90.50;99906.88;5104314;27;20036;-68
2022/02/01 09:06:21;;;;;;;;;;;;;;;3.79;89.92;99918.69;5104056;28;19911;-69
2022/02/01 09:08:46;;;;;;;;;;;;;;;4.02;88.06;99917.97;5106899;28;19926;-66
2022/02/01 09:11:14;;;;;;;;;;;;;;;4.04;87.56;99916.09;5091992;28;20002;-66
2022/02/01 09:13:39;;;;;;;;;;;;;;;4.09;87.33;99921.91;5099993;28;19920;-66
2022/02/01 09:16:06;;;;;;;;;;;;;;;4.18;86.66;99927.47;5095045;28;20240;-66
2022/02/01 09:18:31;;;;;;;;;;;;;;;4.27;86.28;99928.63;5102465;28;19916;-66
2022/02/01 09:20:58;;;;;;;;;;;;;;;4.30;85.30;99928.44;5109289;28;19918;-66
2022/02/01 09:23:23;;;;;;;;;;;;;;;4.35;84.50;99931.59;5090309;28;19916;-66
2022/02/01 09:25:48;;;;;;;;;;;;;;;4.39;83.75;99933.13;5102375;28;19916;-67
2022/02/01 09:28:14;;;;;;;;;;;;;;;4.48;82.70;99937.78;5108866;28;19916;-66
2022/02/01 09:30:39;;;;;;;;;;;;;;;4.48;81.87;99946.59;5093890;28;19912;-65
2022/02/01 09:33:04;;;;;;;;;;;;;;;4.53;81.14;99938.31;5090240;28;20391;-66
2022/02/01 09:35:29;;;;;;;;;;;;;;;4.57;81.46;99937.13;5090067;28;19943;-66
2022/02/01 09:37:55;;;;;;;;;;;;;;;4.67;81.25;99947.03;5106235;28;19957;-66
2022/02/01 09:40:20;;;;;;;;;;;;;;;4.74;80.82;99937.66;5110549;28;19916;-66
2022/02/01 09:42:45;;;;;;;;;;;;;;;4.84;80.72;99935.22;5104814;28;19923;-66
2022/02/01 09:45:11;;;;;;;;;;;;;;;5.02;79.51;99941.88;5099852;28;19940;-67
2022/02/01 09:47:42;;;;;;;;;;;;;;;5.09;79.16;99943.13;5088980;28;19920;-66
2022/02/01 09:50:08;;;;;;;;;;;;;;;5.24;78.58;99950.03;5089875;28;19911;-66
2022/02/01 09:52:34;;;;;;;;;;;;;;;5.33;77.25;99949.38;5090344;28;19927;-66
2022/02/01 09:55:02;;;;;;;;;;;;;;;5.42;76.32;99964.63;5089766;28;19943;-66
2022/02/01 09:57:28;;;;;;;;;;;;;;;5.51;74.22;99973.78;5089920;28;20361;-66
2022/02/01 09:59:58;;;;;;;;;;;;;;;5.57;74.46;99970.66;5088221;28;19945;-66
2022/02/01 10:02:37;;;;;;;;;;;;;;;5.63;72.84;99973.72;5102099;28;20277;-66
2022/02/01 10:05:04;;;;;;;;;;;;;;;5.78;72.55;99963.78;5098026;27;19965;-66
2022/02/01 10:07:29;;;;;;;;;;;;;;;5.85;71.87;99967.72;5089288;28;19920;-66
2022/02/01 10:09:56;;;;;;;;;;;;;;;5.93;70.96;99957.34;5090758;28;19937;-67
2022/02/01 10:12:22;;;;;;;;;;;;;;;6.05;69.53;99953.75;5089510;28;19920;-66
2022/02/01 10:14:59;;;;;;;;;;;;;;;6.13;69.00;99941.56;5089100;28;19919;-66
2022/02/01 10:17:28;;;;;;;;;;;;;;;6.24;67.36;99941.63;5089740;28;19920;-66
2022/02/01 10:19:54;;;;;;;;;;;;;;;6.26;66.28;99937.00;5090883;28;19955;-66
2022/02/01 10:22:28;;;;;;;;;;;;;;;6.32;65.88;99936.53;5106660;28;19953;-66
2022/02/01 10:24:53;;;;;;;;;;;;;;;6.39;65.84;99936.94;5087704;28;19920;-66
2022/02/01 10:27:20;;;;;;;;;;;;;;;6.45;66.07;99931.97;5089116;28;19957;-66
2022/02/01 10:29:59;;;;;;;;;;;;;;;6.47;65.57;99930.03;5087498;28;19921;-66
2022/02/01 10:32:36;;;;;;;;;;;;;;;6.48;66.64;99926.41;5089954;28;20340;-66
2022/02/01 10:38:11;;;;;;;;;;;;;;;6.55;65.94;99929.47;5056138;28;19919;-70
2022/02/01 10:40:46;;;;;;;;;;;;;;;6.58;65.99;99927.38;5087461;28;19912;-69
2022/02/01 10:43:19;;;;;;;;;;;;;;;6.59;64.87;99934.44;5091712;28;20358;-70
2022/02/01 10:45:45;;;;;;;;;;;;;;;6.60;64.73;99935.25;5088756;28;19947;-69
2022/02/01 10:48:28;;;;;;;;;;;;;;;6.55;65.14;99937.44;5096629;28;20051;-69
2022/02/01 10:51:02;;;;;;;;;;;;;;;6.51;65.31;99947.47;5091348;28;20467;-69
2022/02/01 10:53:27;;;;;;;;;;;;;;;6.45;65.24;99945.28;5100820;28;20108;-70
2022/02/01 10:55:53;;;;;;;;;;;;;;;6.42;64.99;99944.69;5097563;28;19943;-69
2022/02/01 10:58:18;;;;;;;;;;;;;;;6.45;65.67;99933.81;5088606;28;19923;-69
2022/02/01 11:00:44;;;;;;;;;;;;;;;6.49;65.29;99928.09;5088601;28;19961;-69
2022/02/01 11:03:13;;;;;;;;;;;;;;;6.55;65.86;99935.63;5088590;28;19912;-70
2022/02/01 11:05:45;;;;;;;;;;;;;;;6.64;64.59;99926.91;5096093;27;20001;-70
2022/02/01 11:08:13;;;;;;;;;;;;;;;6.67;63.55;99940.00;5092236;28;19919;-69
2022/02/01 11:10:42;;;;;;;;;;;;;;;6.72;63.92;99935.19;5104930;28;21548;-70
2022/02/01 11:13:08;;;;;;;;;;;;;;;6.63;64.47;99946.53;5101088;28;20364;-69
2022/02/01 11:15:33;;;;;;;;;;;;;;;6.50;63.86;99943.13;5096950;28;19981;-69
2022/02/01 11:18:24;;;;;;;;;;;;;;;6.47;63.72;99940.69;5102521;28;19912;-70
2022/02/01 11:20:51;;;;;;;;;;;;;;;6.36;64.36;99943.31;5089308;28;19916;-69
2022/02/01 11:23:20;;;;;;;;;;;;;;;6.31;64.50;99950.81;5101626;28;19912;-70
2022/02/01 11:25:48;;;;;;;;;;;;;;;6.30;64.48;99958.94;5095964;28;19946;-69
2022/02/01 11:28:37;;;;;;;;;;;;;;;6.31;63.45;99949.97;5104165;28;19946;-70
2022/02/01 11:31:03;;;;;;;;;;;;;;;6.24;64.18;99954.94;5107151;28;20006;-70
2022/02/01 11:33:36;;;;;;;;;;;;;;;6.23;63.30;99966.53;5102853;28;20050;-70
2022/02/01 11:36:06;;;;;;;;;;;;;;;6.23;62.95;99957.72;5102268;28;20014;-69
2022/02/01 11:38:32;;;;;;;;;;;;;;;6.20;62.81;99952.63;5101137;28;20363;-70
2022/02/01 11:40:59;;;;;;;;;;;;;;;6.11;62.74;99947.97;5100961;28;19912;-70
2022/02/01 11:43:25;;;;;;;;;;;;;;;6.08;61.77;99951.72;5095962;28;19961;-70
2022/02/01 11:45:58;;;;;;;;;;;;;;;6.01;61.88;99962.94;5106555;28;19919;-70
2022/02/01 11:48:27;;;;;;;;;;;;;;;5.96;62.82;99957.97;5104984;28;20455;-70
2022/02/01 11:50:54;;;;;;;;;;;;;;;5.96;63.66;99954.44;5096494;28;19965;-70
2022/02/01 11:53:24;;;;;;;;;;;;;;;5.97;64.67;99954.31;5098394;28;20547;-70
2022/02/01 11:55:51;;;;;;;;;;;;;;;5.99;65.06;99952.41;5100851;28;20029;-70
2022/02/01 11:58:26;;;;;;;;;;;;;;;6.05;66.12;99956.41;5099188;28;19919;-70
2022/02/01 12:00:51;;;;;;;;;;;;;;;6.08;65.97;99945.53;5089050;28;20322;-70
2022/02/01 12:03:20;;;;;;;;;;;;;;;6.14;65.89;99953.06;5092672;28;19912;-69
2022/02/01 12:05:53;;;;;;;;;;;;;;;6.31;65.41;99945.50;5099744;28;19973;-69
2022/02/01 12:08:19;;;;;;;;;;;;;;;6.14;65.96;99950.41;5097830;28;20342;-70
2022/02/01 12:10:49;;;;;;;;;;;;;;;6.21;65.15;99946.31;5092360;28;19918;-70
2022/02/01 12:13:17;;;;;;;;;;;;;;;6.08;65.79;99959.72;5100172;28;19912;-70
2022/02/01 12:15:43;;;;;;;;;;;;;;;6.05;65.46;99961.75;5090744;28;20363;-69
2022/02/01 12:18:08;;;;;;;;;;;;;;;6.00;65.49;99962.09;5101039;28;20360;-69
2022/02/01 12:20:35;;;;;;;;;;;;;;;6.08;64.83;99967.69;5102877;28;19912;-69
2022/02/01 12:23:03;;;;;;;;;;;;;;;5.99;65.42;99968.38;5104904;28;19918;-69
2022/02/01 12:25:29;;;;;;;;;;;;;;;5.94;66.24;99973.19;5099768;28;19912;-69
2022/02/01 12:27:55;;;;;;;;;;;;;;;5.91;66.12;99972.56;5094726;28;19916;-70
2022/02/01 12:30:20;;;;;;;;;;;;;;;5.90;66.50;99977.03;5092979;28;19923;-69
2022/02/01 12:32:53;;;;;;;;;;;;;;;5.95;66.44;99982.88;5084953;28;19912;-69
2022/02/01 12:35:29;;;;;;;;;;;;;;;5.91;66.46;99967.25;5107896;28;19916;-69
2022/02/01 12:38:03;;;;;;;;;;;;;;;5.80;67.12;99969.84;5110963;28;19915;-70
2022/02/01 12:40:32;;;;;;;;;;;;;;;5.75;67.50;99966.66;5108605;28;19915;-66
2022/02/01 12:43:07;;;;;;;;;;;;;;;5.73;67.23;99973.88;5101072;28;19912;-66
2022/02/01 12:48:17;;;;;;;;;;;;;;;5.71;66.69;99976.66;5105816;28;19960;-66
2022/02/01 12:50:51;;;;;;;;;;;;;;;5.94;64.50;99985.66;5090490;28;19912;-66
2022/02/01 12:53:17;;;;;;;;;;;;;;;5.77;64.85;99980.72;5094068;28;19912;-66
2022/02/01 12:55:42;;;;;;;;;;;;;;;5.80;64.63;99983.97;5091296;28;20380;-68
2022/02/01 12:58:07;;;;;;;;;;;;;;;5.75;65.35;99985.28;5097511;28;20391;-66
2022/02/01 13:00:34;;;;;;;;;;;;;;;5.74;64.57;99983.59;5092755;28;19965;-67
2022/02/01 13:03:02;;;;;;;;;;;;;;;5.70;65.16;99990.06;5107352;28;19911;-66
2022/02/01 13:05:30;;;;;;;;;;;;;;;5.76;63.79;100000.28;5105126;27;19919;-67
2022/02/01 13:08:24;;;;;;;;;;;;;;;5.70;64.00;99998.91;5102678;28;19961;-67
2022/02/01 13:16:20;;;;;;;;;;;;;;;5.73;62.04;100013.78;5100343;28;20647;-69
2022/02/01 13:21:14;;;;;;;;;;;;;;;5.73;61.95;100021.78;5102632;28;19916;-70
2022/02/01 13:23:41;;;;;;;;;;;;;;;5.78;61.26;100004.53;5093813;28;20327;-69
2022/02/01 13:26:10;;;;;;;;;;;;;;;5.77;61.22;100009.97;5105903;28;19919;-70
2022/02/01 13:28:36;;;;;;;;;;;;;;;5.77;61.34;100015.28;5097869;28;20014;-70
2022/02/01 13:31:11;;;;;;;;;;;;;;;5.81;60.78;100014.09;5091191;28;19994;-70
2022/02/01 13:33:47;;;;;;;;;;;;;;;5.80;61.59;100013.25;5110505;28;19923;-70
2022/02/01 13:36:12;;;;;;;;;;;;;;;5.83;61.22;100005.06;5105600;28;19961;-70
2022/02/01 13:38:49;;;;;;;;;;;;;;;5.87;61.73;99997.72;5108697;28;20335;-66
2022/02/01 13:41:14;;;;;;;;;;;;;;;5.97;60.47;99993.41;5093067;28;20025;-67
2022/02/01 13:43:47;;;;;;;;;;;;;;;6.07;59.70;99986.44;5104196;28;20010;-67
2022/02/01 13:46:20;;;;;;;;;;;;;;;6.08;59.89;99985.47;5093769;28;19951;-67
2022/02/01 13:48:45;;;;;;;;;;;;;;;6.06;60.12;99985.59;5099136;28;20004;-66
2022/02/01 13:51:11;;;;;;;;;;;;;;;6.01;60.18;99985.09;5107118;28;20007;-66
2022/02/01 13:53:36;;;;;;;;;;;;;;;6.02;59.82;99983.25;5100001;28;20011;-66
2022/02/01 13:56:07;;;;;;;;;;;;;;;6.00;59.77;99982.53;5100795;28;19934;-66
2022/02/01 13:58:33;;;;;;;;;;;;;;;5.98;59.44;99977.34;5106930;28;19912;-70
2022/02/01 14:01:00;;;;;;;;;;;;;;;6.01;59.38;99985.09;5094423;28;19938;-70
2022/02/01 14:06:11;;;;;;;;;;;;;;;5.98;58.23;99982.66;5115058;27;19951;-70
2022/02/01 14:08:47;;;;;;;;;;;;;;;5.95;57.49;99980.22;5095620;28;19916;-70
2022/02/01 14:34:41;;;;;;;;;;;;;;;5.74;54.82;99991.56;5102957;28;19916;-69
2022/02/01 14:37:20;;;;;;;;;;;;;;;5.74;54.61;100002.22;5105935;28;19927;-69
2022/02/01 14:45:15;;;;;;;;;;;;;;;5.51;54.78;99992.41;5093523;28;19938;-65
2022/02/01 14:47:40;;;;;;;;;;;;;;;5.45;54.85;99993.66;5102984;28;19923;-66
2022/02/01 14:50:07;;;;;;;;;;;;;;;5.41;55.12;99994.84;5103256;28;19919;-68
2022/02/01 14:52:33;;;;;;;;;;;;;;;5.40;54.93;100006.47;5099101;28;19912;-69
2022/02/01 14:55:05;;;;;;;;;;;;;;;5.39;54.94;100006.56;5103695;28;19941;-68
2022/02/01 15:13:23;;;;;;;;;;;;;;;5.26;54.66;100011.06;5091030;28;20433;-69
2022/02/01 15:15:50;;;;;;;;;;;;;;;5.23;54.96;100011.28;5103235;28;19939;-69
2022/02/01 15:18:16;;;;;;;;;;;;;;;5.21;54.80;100018.50;5096763;28;19915;-69
2022/02/01 15:20:41;;;;;;;;;;;;;;;5.17;54.74;100017.88;5090117;28;19922;-69
2022/02/01 15:23:07;;;;;;;;;;;;;;;5.18;54.66;100024.88;5101259;28;19919;-68